Time;durP1;ratioP1;P1;durP2;ratioP2;P2;SDS_P1;SDS_P2;PMS_P1;PMS_P2;Temp;Humidity;BMP_temperature;BMP_pressure;BME280_temperature;BME280_humidity;BME280_pressure;Samples;Min_cycle;Max_cycle;Signal;HPM_P1;HPM_P2
2023/04/12 00:00:10;;;;;;;16.30;9.55;;;9.50;99.90;;;9.56;100.00;100205.59;4996735;28;20047;-68
2023/04/12 00:02:39;;;;;;;12.52;8.65;;;9.40;99.90;;;9.58;100.00;100177.44;4996465;28;20042;-68
2023/04/12 00:05:10;;;;;;;17.33;9.18;;;9.40;99.90;;;9.65;100.00;100165.88;4996848;28;20488;-67
2023/04/12 00:07:45;;;;;;;16.38;9.43;;;9.50;99.90;;;9.59;100.00;100156.28;4996928;28;20544;-68
2023/04/12 00:10:14;;;;;;;15.25;9.30;;;9.40;99.90;;;9.51;100.00;100168.69;4996364;28;20053;-68
2023/04/12 00:12:42;;;;;;;15.88;9.27;;;9.40;99.90;;;9.57;100.00;100149.25;4996490;28;20042;-67
2023/04/12 00:15:11;;;;;;;11.35;8.52;;;9.40;99.90;;;9.51;100.00;100133.50;4996062;28;20069;-68
2023/04/12 00:17:40;;;;;;;14.43;8.68;;;9.40;99.90;;;9.31;100.00;100096.78;4996193;28;20038;-68
2023/04/12 00:20:11;;;;;;;18.55;9.50;;;9.40;99.90;;;9.55;100.00;100116.72;4996403;28;20034;-68
2023/04/12 00:22:41;;;;;;;15.10;9.00;;;9.40;99.90;;;9.59;100.00;100121.97;4996408;28;20047;-68
2023/04/12 00:25:10;;;;;;;13.55;8.85;;;9.40;99.90;;;9.62;100.00;100119.28;4996048;28;20049;-68
2023/04/12 00:27:39;;;;;;;15.50;8.32;;;9.40;99.90;;;9.57;100.00;100093.81;4994929;28;20519;-68
2023/04/12 00:30:09;;;;;;;14.98;8.50;;;9.40;99.90;;;9.50;100.00;100085.13;4995073;28;20053;-68
2023/04/12 00:32:37;;;;;;;11.57;7.70;;;9.40;99.90;;;9.44;100.00;100085.22;4996463;28;20086;-68
2023/04/12 00:35:07;;;;;;;13.50;8.32;;;9.30;99.90;;;9.59;100.00;100055.97;4994871;28;20050;-68
2023/04/12 00:37:37;;;;;;;16.13;8.32;;;9.40;99.90;;;9.78;100.00;100068.00;4995853;28;20050;-68
2023/04/12 00:40:10;;;;;;;12.50;7.78;;;9.60;99.90;;;9.72;100.00;100067.22;4995872;28;20125;-68
2023/04/12 00:42:39;;;;;;;12.40;7.78;;;9.60;99.90;;;9.58;100.00;100067.41;4996026;28;20042;-68
2023/04/12 00:45:08;;;;;;;9.95;7.50;;;9.50;99.90;;;9.48;100.00;100051.72;4995930;28;20076;-68
2023/04/12 00:47:38;;;;;;;14.55;7.80;;;9.40;99.90;;;9.38;100.00;100063.28;4995609;28;20504;-68
2023/04/12 00:50:08;;;;;;;10.57;7.45;;;9.30;99.90;;;9.41;100.00;100066.75;4995802;28;20053;-68
2023/04/12 00:52:37;;;;;;;11.43;7.20;;;9.30;99.90;;;9.44;100.00;100032.41;4995881;28;20061;-68
2023/04/12 00:55:09;;;;;;;12.48;7.80;;;9.30;99.90;;;9.51;100.00;100031.44;4995754;28;20076;-67
2023/04/12 00:57:40;;;;;;;10.02;6.80;;;9.30;99.90;;;9.40;100.00;100019.28;4995382;28;20527;-68
2023/04/12 01:00:12;;;;;;;13.98;7.25;;;9.30;99.90;;;9.45;100.00;100010.41;4994465;28;20137;-70
2023/04/12 01:02:46;;;;;;;11.45;6.70;;;9.30;99.90;;;9.34;100.00;99971.84;4995700;28;20492;-68
2023/04/12 01:05:20;;;;;;;11.35;7.50;;;9.30;99.90;;;9.47;100.00;99999.81;4993142;28;20058;-68
2023/04/12 01:07:59;;;;;;;12.48;7.68;;;9.30;99.90;;;9.50;100.00;99981.31;4995296;28;20484;-68
2023/04/12 01:10:41;;;;;;;12.00;7.32;;;9.30;99.90;;;9.52;100.00;99964.56;4994204;28;20077;-68
2023/04/12 01:13:27;;;;;;;9.70;6.35;;;9.30;99.90;;;9.49;100.00;100001.53;4994146;28;20079;-68
2023/04/12 01:16:01;;;;;;;11.23;6.70;;;9.40;99.90;;;9.47;100.00;99949.66;4994138;28;20050;-68
2023/04/12 01:18:39;;;;;;;11.13;6.65;;;9.30;99.90;;;9.46;100.00;99987.53;4994123;28;20514;-68
2023/04/12 01:21:16;;;;;;;10.23;6.93;;;9.30;99.90;;;9.49;100.00;99955.78;4993962;28;20054;-69
2023/04/12 01:24:01;;;;;;;10.07;6.88;;;9.30;99.90;;;9.47;100.00;99955.81;4993959;28;20348;-68
2023/04/12 01:26:41;;;;;;;10.40;6.47;;;9.30;99.90;;;9.40;100.00;99906.69;4993603;28;20074;-68
2023/04/12 01:29:14;;;;;;;9.10;6.50;;;9.30;99.90;;;9.31;100.00;99901.50;4994896;28;20399;-68
2023/04/12 01:31:50;;;;;;;10.23;6.55;;;9.20;99.90;;;9.42;100.00;99904.88;4995180;28;20054;-68
2023/04/12 01:34:20;;;;;;;9.43;6.22;;;9.20;99.90;;;9.41;100.00;99891.69;4993767;28;20078;-68
2023/04/12 01:36:49;;;;;;;9.43;6.22;;;9.20;99.90;;;9.25;100.00;99885.81;4993604;28;20054;-68
2023/04/12 01:39:17;;;;;;;8.20;5.28;;;9.10;99.90;;;9.36;100.00;99873.31;4994901;28;20069;-69
2023/04/12 01:41:47;;;;;;;9.43;5.90;;;9.20;99.90;;;9.26;100.00;99871.72;4994886;28;20046;-68
2023/04/12 01:44:18;;;;;;;7.65;5.20;;;9.10;99.90;;;9.29;100.00;99861.09;4994883;28;20124;-68
2023/04/12 01:46:48;;;;;;;11.73;5.78;;;9.10;99.90;;;9.27;100.00;99888.41;4993283;28;20058;-68
2023/04/12 01:49:19;;;;;;;8.20;5.15;;;9.10;99.90;;;9.26;100.00;99845.31;4994496;28;20424;-68
2023/04/12 01:51:58;;;;;;;9.32;6.10;;;9.20;99.90;;;9.34;100.00;99859.28;4994977;28;20038;-69
2023/04/12 01:54:33;;;;;;;7.38;5.53;;;9.20;99.90;;;9.30;100.00;99861.97;4994626;28;20050;-69
2023/04/12 01:57:07;;;;;;;7.88;5.30;;;9.20;99.90;;;9.38;100.00;99866.25;4993293;28;20054;-68
2023/04/12 01:59:40;;;;;;;7.47;5.00;;;9.20;99.90;;;8.54;100.00;99751.50;4993320;28;20054;-68
2023/04/12 02:02:11;;;;;;;11.52;5.80;;;9.20;99.90;;;9.48;100.00;99838.81;4994506;28;20054;-68
2023/04/12 02:04:41;;;;;;;9.40;6.22;;;9.30;99.90;;;9.38;100.00;99828.41;4993399;28;20054;-68
2023/04/12 02:07:10;;;;;;;7.40;5.47;;;9.20;99.90;;;9.24;100.00;99836.56;4994141;28;20530;-68
2023/04/12 02:09:39;;;;;;;11.60;5.75;;;9.10;99.90;;;9.28;100.00;99827.69;4993049;28;20440;-69
2023/04/12 02:12:09;;;;;;;9.00;5.43;;;9.10;99.90;;;9.15;100.00;99799.78;4992949;28;20053;-68
2023/04/12 02:14:39;;;;;;;7.60;5.88;;;9.20;99.90;;;9.31;100.00;99816.25;4994236;28;20448;-69
2023/04/12 02:17:08;;;;;;;8.90;5.47;;;9.10;99.90;;;9.15;100.00;99765.50;4993808;28;20042;-69
2023/04/12 02:19:37;;;;;;;9.13;5.20;;;9.20;99.90;;;9.33;100.00;99788.91;4992898;28;20046;-69
2023/04/12 02:22:07;;;;;;;5.55;4.90;;;9.20;99.90;;;9.36;100.00;99791.50;4992823;28;20407;-68
2023/04/12 02:24:35;;;;;;;8.70;5.68;;;9.20;99.90;;;9.19;100.00;99753.13;4992783;28;20082;-69
2023/04/12 02:27:04;;;;;;;10.27;5.85;;;9.10;99.90;;;9.34;100.00;99798.59;4993799;28;20548;-68
2023/04/12 02:29:34;;;;;;;8.52;5.80;;;9.20;99.90;;;9.30;100.00;99783.69;4992929;28;20049;-69
2023/04/12 02:32:04;;;;;;;6.57;5.40;;;9.10;99.90;;;9.35;100.00;99754.59;4992447;28;20069;-69
2023/04/12 02:34:35;;;;;;;7.13;5.68;;;9.10;99.90;;;9.28;100.00;99771.41;4992785;28;20054;-69
2023/04/12 02:37:16;;;;;;;7.80;5.65;;;9.10;99.90;;;9.32;100.00;99766.06;4993807;28;20045;-68
2023/04/12 02:39:45;;;;;;;8.13;6.00;;;9.20;99.90;;;9.28;100.00;99768.78;4993803;28;20051;-69
2023/04/12 02:42:13;;;;;;;8.90;6.28;;;9.10;99.90;;;9.28;100.00;99761.75;4992515;28;20377;-69
2023/04/12 02:44:46;;;;;;;10.00;6.97;;;9.10;99.90;;;9.37;100.00;99750.16;4992496;28;20116;-68
2023/04/12 02:47:16;;;;;;;10.00;6.07;;;9.20;99.90;;;9.53;100.00;99727.88;4992543;28;20105;-70
2023/04/12 02:49:48;;;;;;;9.02;6.40;;;9.30;99.90;;;9.63;100.00;99738.22;4992455;28;20053;-69
2023/04/12 02:52:18;;;;;;;7.57;5.90;;;9.40;99.90;;;9.60;100.00;99716.31;4992143;28;20141;-69
2023/04/12 02:55:00;;;;;;;9.25;6.57;;;9.40;99.90;;;9.55;100.00;99726.06;4992367;28;20392;-69
2023/04/12 02:57:29;;;;;;;8.38;6.75;;;9.40;99.90;;;9.60;100.00;99766.47;4992328;28;20112;-69
2023/04/12 02:59:57;;;;;;;7.78;6.55;;;9.50;99.90;;;9.70;100.00;99721.38;4992331;28;20101;-70
2023/04/12 03:02:34;;;;;;;6.88;6.18;;;9.50;99.90;;;9.53;100.00;99685.63;4992252;28;20073;-69
2023/04/12 03:05:06;;;;;;;18.88;6.70;;;9.40;99.90;;;9.64;100.00;99683.69;4992242;28;20108;-69
2023/04/12 03:07:40;;;;;;;7.97;6.90;;;9.40;99.90;;;9.56;100.00;99717.25;4992237;28;20133;-69
2023/04/12 03:10:11;;;;;;;7.78;6.82;;;9.40;99.90;;;9.50;100.00;99686.59;4992089;28;20069;-69
2023/04/12 03:12:52;;;;;;;8.73;7.10;;;9.40;99.90;;;9.47;100.00;99731.50;4992257;28;20043;-69
2023/04/12 03:15:22;;;;;;;9.63;6.60;;;9.30;99.90;;;9.63;100.00;99680.16;4991982;28;20054;-69
2023/04/12 03:17:54;;;;;;;9.50;7.20;;;9.40;99.90;;;9.51;100.00;99693.59;4993464;28;20038;-69
2023/04/12 03:20:28;;;;;;;7.90;7.20;;;9.40;99.90;;;9.60;100.00;99684.63;4992081;28;20054;-69
2023/04/12 03:23:03;;;;;;;8.07;7.28;;;9.40;99.90;;;9.65;100.00;99669.56;4992331;28;20057;-69
2023/04/12 03:25:35;;;;;;;8.73;7.60;;;9.50;99.90;;;9.69;100.00;99671.25;4992060;28;20050;-69
2023/04/12 03:28:26;;;;;;;9.73;8.35;;;9.50;99.90;;;9.65;100.00;99681.00;4994116;28;20492;-69
2023/04/12 03:30:55;;;;;;;10.32;8.13;;;9.60;99.90;;;9.62;100.00;99688.97;4995791;28;20166;-69
2023/04/12 03:33:29;;;;;;;8.80;7.93;;;9.50;99.90;;;9.66;100.00;99643.13;4995941;28;20051;-69
2023/04/12 03:36:02;;;;;;;10.48;7.65;;;9.50;99.90;;;9.75;100.00;99652.66;4995871;28;20042;-69
2023/04/12 03:38:32;;;;;;;10.93;8.13;;;9.60;99.90;;;9.88;100.00;99656.75;4995862;28;20050;-69
2023/04/12 03:41:00;;;;;;;8.65;7.80;;;9.70;99.90;;;9.82;100.00;99660.41;4995686;28;20085;-69
2023/04/12 03:43:37;;;;;;;9.00;8.18;;;9.70;99.90;;;9.82;100.00;99664.81;4995557;28;20053;-69
2023/04/12 03:46:15;;;;;;;10.38;9.07;;;9.60;99.90;;;9.79;100.00;99620.00;4995829;28;20054;-68
2023/04/12 03:48:47;;;;;;;9.63;8.68;;;9.60;99.90;;;9.75;100.00;99613.03;4995530;28;20101;-69
2023/04/12 03:51:16;;;;;;;11.43;10.43;;;9.60;99.90;;;9.86;100.00;99611.03;4995772;28;20187;-69
2023/04/12 03:53:45;;;;;;;10.73;9.70;;;9.60;99.90;;;9.98;100.00;99621.31;4995595;28;20108;-69
2023/04/12 03:56:15;;;;;;;13.35;9.98;;;9.80;99.90;;;10.04;100.00;99632.59;4995568;28;20042;-69
2023/04/12 03:58:48;;;;;;;10.57;9.43;;;9.90;99.90;;;10.15;100.00;99618.31;4995730;28;20121;-69
2023/04/12 04:01:16;;;;;;;11.95;9.10;;;9.90;99.90;;;10.28;100.00;99615.38;4995829;28;20046;-69
2023/04/12 04:03:48;;;;;;;9.97;8.80;;;10.00;99.90;;;10.33;100.00;99616.16;4995671;28;20058;-69
2023/04/12 04:06:23;;;;;;;9.70;8.57;;;10.10;99.90;;;10.32;100.00;99602.94;4995347;28;20806;-69
2023/04/12 04:08:56;;;;;;;9.45;8.43;;;10.10;99.90;;;10.42;100.00;99615.03;4995376;28;20050;-69
2023/04/12 04:11:27;;;;;;;9.57;8.70;;;10.20;99.90;;;10.37;100.00;99598.44;4995311;28;20046;-69
2023/04/12 04:14:04;;;;;;;11.45;8.23;;;10.20;99.90;;;10.45;100.00;99620.28;4995268;28;20054;-69
2023/04/12 04:16:32;;;;;;;8.82;7.75;;;10.20;99.90;;;10.46;100.00;99611.41;4995128;28;20050;-69
2023/04/12 04:19:05;;;;;;;9.52;8.63;;;10.30;99.90;;;10.62;100.00;99602.22;5011315;28;20125;-69
2023/04/12 04:21:33;;;;;;;9.40;8.10;;;10.40;99.90;;;10.76;100.00;99608.88;4995149;28;20069;-69
2023/04/12 04:24:02;;;;;;;9.27;7.80;;;10.50;99.90;;;10.84;100.00;99614.84;4996313;28;20039;-69
2023/04/12 04:26:37;;;;;;;9.93;7.88;;;10.60;99.90;;;10.77;100.00;99610.63;4995045;28;20054;-69
2023/04/12 04:29:17;;;;;;;9.50;8.43;;;10.50;99.90;;;10.84;100.00;99611.31;4995089;28;20412;-69
2023/04/12 04:31:46;;;;;;;9.63;8.07;;;10.60;99.90;;;10.84;100.00;99608.69;4994592;28;20050;-69
2023/04/12 04:34:17;;;;;;;11.25;8.85;;;10.60;99.90;;;10.96;100.00;99620.72;4996252;28;20042;-69
2023/04/12 04:36:48;;;;;;;11.63;9.93;;;10.60;99.90;;;10.96;100.00;99621.59;4995023;28;20058;-69
2023/04/12 04:39:28;;;;;;;12.88;10.57;;;10.70;99.90;;;10.99;100.00;99618.88;4994518;28;20050;-69
2023/04/12 04:41:58;;;;;;;11.73;8.70;;;10.70;99.90;;;11.04;100.00;99618.75;4994845;28;20053;-68
2023/04/12 04:44:37;;;;;;;11.70;9.50;;;10.70;99.90;;;10.93;100.00;99619.06;4994696;28;20046;-69
2023/04/12 04:47:08;;;;;;;14.15;9.43;;;10.70;99.90;;;11.06;100.00;99603.69;4994736;28;20105;-69
2023/04/12 04:49:38;;;;;;;11.75;9.25;;;10.70;99.90;;;11.08;100.00;99607.19;4994655;28;20073;-69
2023/04/12 04:52:26;;;;;;;13.07;9.35;;;10.70;99.90;;;11.09;100.00;99599.19;4995096;28;20047;-69
2023/04/12 04:55:00;;;;;;;14.40;9.57;;;10.80;99.90;;;11.17;100.00;99609.59;4994295;28;20050;-69
2023/04/12 04:57:36;;;;;;;14.93;9.15;;;10.90;99.90;;;11.18;100.00;99608.66;4995877;28;20077;-68
2023/04/12 05:00:09;;;;;;;16.15;9.35;;;10.80;99.90;;;11.24;100.00;99611.16;4994457;28;20149;-69
2023/04/12 05:02:42;;;;;;;16.08;9.07;;;10.90;99.90;;;11.04;100.00;99582.59;4994489;28;20140;-69
2023/04/12 05:05:16;;;;;;;16.88;8.63;;;10.90;99.90;;;11.20;100.00;99607.72;4994341;28;20093;-69
2023/04/12 05:07:46;;;;;;;14.93;7.90;;;10.90;99.90;;;11.16;100.00;99598.13;4994229;28;20523;-69
2023/04/12 05:10:15;;;;;;;19.05;8.07;;;10.90;99.90;;;11.21;100.00;99604.16;4994140;28;20056;-69
2023/04/12 05:12:44;;;;;;;17.88;8.68;;;10.90;99.90;;;11.27;100.00;99605.75;4994130;28;20488;-69
2023/04/12 05:15:14;;;;;;;20.95;7.95;;;10.90;99.90;;;11.38;100.00;99596.63;4994175;28;20591;-69
2023/04/12 05:17:44;;;;;;;20.00;7.43;;;11.00;99.90;;;11.33;100.00;99597.66;4995039;28;20059;-69
2023/04/12 05:20:12;;;;;;;24.50;6.90;;;11.00;99.90;;;11.28;100.00;99597.81;4993997;28;20492;-69
2023/04/12 05:22:42;;;;;;;23.98;7.40;;;11.00;99.90;;;11.28;100.00;99594.28;4994967;28;20074;-69
2023/04/12 05:25:11;;;;;;;;;;;11.00;99.90;;;11.19;100.00;99582.16;4994058;28;20145;-69
2023/04/12 05:27:47;;;;;;;24.30;6.60;;;11.00;99.90;;;11.33;100.00;99590.59;4993963;28;20049;-68
2023/04/12 05:30:20;;;;;;;23.08;7.30;;;11.00;99.90;;;11.49;100.00;99605.16;4993611;28;20511;-68
2023/04/12 05:32:49;;;;;;;24.83;6.85;;;11.10;99.90;;;11.50;100.00;99606.88;4993820;28;20453;-68
2023/04/12 05:35:19;;;;;;;24.25;7.13;;;11.20;99.90;;;11.50;100.00;99614.81;4993666;28;20054;-68
2023/04/12 05:37:50;;;;;;;22.50;6.47;;;11.20;99.90;;;11.53;100.00;99620.03;4993596;28;20078;-68
2023/04/12 05:40:19;;;;;;;33.03;7.63;;;11.20;99.90;;;11.53;100.00;99620.03;4993531;28;20046;-68
2023/04/12 05:42:51;;;;;;;34.20;7.38;;;11.20;99.90;;;11.58;100.00;99628.69;4993518;28;20579;-68
2023/04/12 05:45:19;;;;;;;34.05;7.22;;;11.30;99.90;;;11.61;100.00;99612.72;4994785;28;20038;-68
2023/04/12 05:47:48;;;;;;;31.90;7.53;;;11.30;99.90;;;11.68;100.00;99619.63;4993389;28;20177;-68
2023/04/12 05:50:17;;;;;;;32.35;7.88;;;11.30;99.90;;;11.68;100.00;99614.31;4992644;28;20074;-68
2023/04/12 05:52:47;;;;;;;30.50;7.88;;;11.40;99.90;;;11.79;100.00;99608.69;4993253;28;20050;-68
2023/04/12 05:55:17;;;;;;;34.00;7.43;;;11.40;99.90;;;11.76;100.00;99614.09;4993292;28;20141;-68
2023/04/12 05:57:46;;;;;;;37.80;8.00;;;11.40;99.90;;;11.69;100.00;99617.84;4994499;28;20488;-68
2023/04/12 06:00:17;;;;;;;39.17;8.30;;;11.40;99.90;;;11.73;100.00;99623.00;4993472;28;20046;-68
2023/04/12 06:02:49;;;;;;;31.05;8.00;;;11.40;99.90;;;11.76;100.00;99614.97;4993107;28;20146;-68
2023/04/12 06:05:18;;;;;;;30.20;8.10;;;11.40;99.90;;;11.81;100.00;99612.16;4993196;28;20069;-68
2023/04/12 06:07:46;;;;;;;34.10;8.07;;;11.50;99.90;;;11.76;100.00;99620.28;4994395;28;20447;-69
2023/04/12 06:10:17;;;;;;;44.55;8.82;;;11.50;99.90;;;11.85;100.00;99616.47;4994386;28;20049;-68
2023/04/12 06:12:52;;;;;;;29.63;7.55;;;11.50;99.90;;;11.81;99.37;99612.16;4993036;28;20050;-69
2023/04/12 06:15:20;;;;;;;36.85;7.97;;;11.50;99.90;;;11.74;99.16;99621.22;4992841;28;20057;-69
2023/04/12 06:17:54;;;;;;;31.13;8.27;;;11.40;99.90;;;11.75;98.47;99626.47;4992797;28;20042;-68
2023/04/12 06:20:23;;;;;;;35.05;7.72;;;11.40;99.90;;;11.70;97.92;99630.16;4994134;28;20162;-69
2023/04/12 06:22:51;;;;;;;31.83;7.55;;;11.40;99.90;;;11.69;97.38;99621.34;4992745;28;20137;-70
2023/04/12 06:25:23;;;;;;;30.50;7.25;;;11.40;99.90;;;11.79;96.97;99620.16;4992729;28;20543;-69
2023/04/12 06:27:52;;;;;;;30.50;7.57;;;11.50;99.90;;;11.72;96.74;99625.69;4992603;28;20050;-69
2023/04/12 06:30:23;;;;;;;38.03;9.35;;;11.40;99.90;;;11.56;96.68;99624.34;4992343;28;20496;-69
2023/04/12 06:32:53;;;;;;;31.92;8.32;;;11.30;99.90;;;11.64;97.30;99631.19;4994065;28;20432;-70
2023/04/12 06:35:23;;;;;;;32.97;7.90;;;11.30;99.90;;;11.60;97.35;99618.94;4992801;28;20141;-70
2023/04/12 06:37:51;;;;;;;30.52;8.65;;;11.30;99.90;;;11.57;97.32;99624.34;4992387;28;20042;-71
2023/04/12 06:40:22;;;;;;;28.67;7.15;;;11.20;99.90;;;11.61;97.27;99615.38;4994167;28;20101;-70
2023/04/12 06:42:50;;;;;;;32.20;7.88;;;11.30;99.90;;;11.70;97.35;99624.88;4993729;28;20046;-69
2023/04/12 06:45:22;;;;;;;33.30;7.97;;;11.30;99.90;;;11.70;96.50;99635.47;4992451;28;20391;-70
2023/04/12 06:47:54;;;;;;;41.28;8.05;;;11.30;99.90;;;11.55;95.49;99620.88;4992212;28;20058;-69
2023/04/12 06:50:24;;;;;;;29.00;6.75;;;11.30;99.90;;;11.54;95.36;99632.34;4992465;28;20050;-70
2023/04/12 06:52:53;;;;;;;28.35;7.20;;;11.20;99.90;;;11.69;95.08;99631.94;4993956;28;20057;-71
2023/04/12 06:55:23;;;;;;;39.13;8.77;;;11.30;99.90;;;11.67;94.39;99623.16;4993415;28;20129;-73
2023/04/12 06:57:51;;;;;;;39.33;8.68;;;11.30;99.90;;;11.70;93.75;99623.09;4992480;28;20133;-72
2023/04/12 07:00:20;;;;;;;32.72;8.80;;;11.40;99.90;;;11.64;93.09;99614.41;4993316;28;20035;-70
2023/04/12 07:02:48;;;;;;;31.02;7.47;;;11.30;99.90;;;11.81;92.70;99613.97;4992262;28;20074;-73
2023/04/12 07:05:17;;;;;;;35.70;7.72;;;11.40;99.90;;;11.82;92.61;99611.28;4993240;28;20132;-74
2023/04/12 07:07:45;;;;;;;28.30;7.95;;;11.50;99.90;;;12.13;93.77;99624.47;4993167;28;20038;-69
2023/04/12 07:10:14;;;;;;;30.35;8.30;;;11.70;99.90;;;12.42;93.15;99621.78;4993710;28;20042;-70
2023/04/12 07:12:44;;;;;;;37.10;8.32;;;12.00;99.90;;;12.74;92.73;99605.66;4993786;28;20101;-69
2023/04/12 07:15:12;;;;;;;30.63;7.97;;;12.30;99.90;;;12.99;90.72;99595.94;4993236;28;20108;-69
2023/04/12 07:17:41;;;;;;;29.08;6.65;;;12.60;99.90;;;13.27;88.10;99594.09;4993111;28;20061;-69
2023/04/12 07:20:11;;;;;;;27.23;7.32;;;12.90;99.90;;;13.57;86.82;99592.09;4993449;28;20184;-69
2023/04/12 07:22:39;;;;;;;26.70;7.10;;;13.20;99.90;;;13.95;85.19;99606.63;4993373;28;20050;-69
2023/04/12 07:25:09;;;;;;;28.08;7.07;;;13.60;99.90;;;14.16;83.06;99613.78;4993580;28;20038;-69
2023/04/12 07:27:38;;;;;;;27.80;6.90;;;13.80;99.90;;;14.27;79.34;99598.25;4993683;28;20042;-68
2023/04/12 07:30:09;;;;;;;29.42;6.85;;;14.00;99.90;;;14.30;77.29;99604.34;4993195;28;20545;-69
2023/04/12 07:32:37;;;;;;;23.02;7.10;;;14.00;99.90;;;14.24;77.58;99603.69;4993047;28;20078;-69
2023/04/12 07:35:07;;;;;;;29.08;7.03;;;13.90;99.90;;;14.16;75.99;99601.34;4993346;28;20046;-69
2023/04/12 07:37:36;;;;;;;23.40;7.70;;;13.80;99.90;;;14.08;75.76;99590.13;4993188;28;20042;-69
2023/04/12 07:40:06;;;;;;;29.05;6.78;;;13.70;99.90;;;13.91;75.52;99578.44;4993213;28;20163;-70
2023/04/12 07:42:34;;;;;;;27.73;7.13;;;13.60;99.90;;;13.76;75.65;99589.66;4991935;28;20046;-69
2023/04/12 07:45:03;;;;;;;23.77;6.30;;;13.50;99.90;;;13.80;76.91;99591.28;4992883;28;20053;-69
2023/04/12 07:47:33;;;;;;;28.00;8.15;;;13.40;99.90;;;13.91;76.00;99592.59;4992877;28;20125;-69
2023/04/12 07:50:02;;;;;;;24.03;6.50;;;13.50;99.90;;;14.14;77.57;99591.69;4991863;28;20046;-69
2023/04/12 07:52:32;;;;;;;28.75;7.80;;;13.70;99.90;;;14.50;77.96;99590.22;4993140;28;20042;-70
2023/04/12 07:55:00;;;;;;;23.23;7.03;;;14.10;99.90;;;14.68;76.78;99570.84;4993352;28;20077;-70
2023/04/12 07:57:30;;;;;;;32.83;8.40;;;14.40;99.90;;;14.93;75.36;99579.53;4992683;28;20047;-69
2023/04/12 08:00:01;;;;;;;26.30;6.95;;;14.60;99.90;;;14.94;72.80;99589.25;4993025;28;20041;-69
2023/04/12 08:02:41;;;;;;;26.38;7.55;;;14.60;99.90;;;14.91;72.31;99593.84;4992753;28;20054;-69
2023/04/12 08:05:10;;;;;;;24.27;6.93;;;14.60;99.90;;;14.79;71.42;99592.56;4992694;28;20046;-69
2023/04/12 08:07:38;;;;;;;28.83;7.15;;;14.50;99.90;;;14.76;71.40;99592.72;4993522;28;20042;-69
2023/04/12 08:10:08;;;;;;;27.48;7.00;;;14.40;99.90;;;14.62;71.58;99588.88;4992626;28;20530;-69
2023/04/12 08:12:37;;;;;;;27.50;7.57;;;14.30;99.90;;;14.61;71.10;99581.84;4993207;28;20042;-69
2023/04/12 08:15:06;;;;;;;29.50;7.25;;;14.30;99.90;;;14.56;71.84;99568.69;4995512;28;20046;-69
2023/04/12 08:17:35;;;;;;;24.70;7.33;;;14.30;99.90;;;14.81;71.27;99598.69;4996484;28;20046;-69
2023/04/12 08:20:06;;;;;;;25.77;7.10;;;14.50;99.90;;;14.80;70.61;99604.09;4995998;28;20488;-69
2023/04/12 08:22:34;;;;;;;27.40;6.70;;;14.40;99.90;;;14.68;68.64;99597.47;4996337;28;20050;-69
2023/04/12 08:25:03;;;;;;;26.85;8.30;;;14.40;99.90;;;14.75;68.99;99603.41;4996196;28;20469;-70
2023/04/12 08:27:31;;;;;;;27.05;7.22;;;14.40;99.90;;;14.82;69.36;99605.75;4996319;28;20051;-70
2023/04/12 08:30:00;;;;;;;27.38;6.78;;;14.40;99.90;;;14.74;67.50;99599.88;4996186;28;20073;-69
2023/04/12 08:32:28;;;;;;;23.60;7.30;;;14.40;99.90;;;14.85;68.22;99605.63;4996541;28;20054;-69
2023/04/12 08:34:56;;;;;;;24.38;6.75;;;14.40;99.90;;;14.80;66.83;99589.00;4995936;28;20070;-70
2023/04/12 08:37:26;;;;;;;24.15;7.05;;;14.50;99.90;;;14.77;67.60;99593.59;4996168;28;20050;-69
2023/04/12 08:39:54;;;;;;;21.73;6.82;;;14.40;99.90;;;14.86;67.87;99598.50;4996300;28;20042;-70
2023/04/12 08:42:23;;;;;;;26.45;6.82;;;14.50;99.90;;;14.93;67.38;99589.31;4996335;28;20105;-69
2023/04/12 08:44:52;;;;;;;31.88;7.82;;;14.60;99.90;;;14.69;66.68;99590.38;4995703;28;20046;-70
2023/04/12 08:47:22;;;;;;;21.65;6.85;;;14.40;99.90;;;14.64;66.73;99598.53;4995871;28;20094;-70
2023/04/12 08:49:51;;;;;;;34.13;7.40;;;14.30;99.90;;;14.60;66.89;99591.59;4995957;28;20042;-70
2023/04/12 08:52:19;;;;;;;26.23;6.97;;;14.20;99.90;;;14.50;67.48;99592.06;4995572;28;20504;-69
2023/04/12 08:54:49;;;;;;;23.35;7.07;;;14.10;99.90;;;14.37;68.13;99573.06;4996358;28;20049;-69
2023/04/12 08:57:19;;;;;;;24.30;6.77;;;14.10;99.90;;;14.54;68.23;99580.38;4994565;28;20080;-70
2023/04/12 08:59:51;;;;;;;22.92;6.82;;;14.20;99.90;;;14.44;67.91;99580.72;4995280;28;20842;-70
2023/04/12 09:02:20;;;;;;;27.35;7.93;;;14.10;99.90;;;14.33;67.72;99592.72;4996015;28;20038;-72
2023/04/12 09:04:52;;;;;;;29.67;7.43;;;14.00;99.90;;;14.35;68.78;99602.38;4995482;28;20042;-73
2023/04/12 09:07:22;;;;;;;31.38;8.10;;;14.00;99.90;;;14.30;68.65;99592.84;4995338;28;20066;-70
2023/04/12 09:09:52;;;;;;;29.33;6.72;;;14.00;99.90;;;14.38;69.59;99601.41;4994342;28;20145;-70
2023/04/12 09:12:22;;;;;;;28.17;7.03;;;14.00;99.90;;;14.36;68.82;99603.25;4995443;28;20053;-70
2023/04/12 09:15:07;;;;;;;;;;;14.00;99.90;;;14.47;68.03;99601.03;4995556;28;20053;-70
2023/04/12 09:17:37;;;;;;;28.67;7.78;;;14.10;99.90;;;14.43;67.56;99596.75;4995546;28;19926;-70
2023/04/12 09:20:24;;;;;;;32.55;8.52;;;14.10;99.90;;;14.43;66.76;99596.75;4995425;28;20129;-70
2023/04/12 09:22:54;;;;;;;28.40;7.47;;;14.10;99.90;;;14.44;68.02;99580.72;4995043;28;20042;-70
2023/04/12 09:25:44;;;;;;;30.95;7.07;;;14.10;99.90;;;14.31;67.32;99584.81;4993869;28;20129;-70
2023/04/12 09:28:24;;;;;;;31.77;7.75;;;14.00;99.90;;;13.99;68.31;99547.09;4995198;28;20500;-71
2023/04/12 09:30:53;;;;;;;30.55;7.60;;;13.90;99.90;;;14.17;67.90;99583.56;4994700;28;20054;-74
2023/04/12 09:33:23;;;;;;;27.25;7.43;;;13.80;99.90;;;14.18;68.25;99598.63;4995061;28;20042;-72
2023/04/12 09:36:01;;;;;;;30.17;7.90;;;13.80;99.90;;;14.18;67.79;99594.19;4994795;28;20496;-76
2023/04/12 09:38:30;;;;;;;29.05;7.28;;;13.80;99.90;;;14.04;66.44;99585.00;4993847;28;20050;-73
2023/04/12 09:41:17;;;;;;;22.90;6.50;;;13.70;99.90;;;14.24;66.08;99585.97;4994855;28;20547;-75
2023/04/12 09:43:49;;;;;;;;;;;13.90;99.90;;;14.53;65.22;99590.13;4993985;28;20057;-76
2023/04/12 09:46:17;;;;;;;29.13;7.20;;;14.10;99.90;;;14.79;64.03;99600.53;4994453;28;19921;-75
2023/04/12 09:48:50;;;;;;;18.63;6.35;;;14.40;99.90;;;14.99;62.33;99595.25;4994463;28;20058;-79
2023/04/12 09:51:30;;;;;;;21.02;6.93;;;14.60;99.90;;;15.23;60.70;99590.69;4994426;28;20476;-78
2023/04/12 09:54:00;;;;;;;24.27;6.75;;;14.90;99.90;;;15.62;62.85;99593.41;4994959;28;20109;-74
2023/04/12 09:56:32;;;;;;;25.98;6.85;;;15.20;99.90;;;15.99;62.06;99598.75;4994665;28;20049;-76
2023/04/12 09:59:03;;;;;;;24.23;7.75;;;15.60;99.90;;;16.06;60.68;99602.88;4994137;28;20069;-77
2023/04/12 10:01:34;;;;;;;;;;;15.70;99.90;;;16.16;61.60;99606.84;4994777;28;20046;-72
2023/04/12 10:04:03;;;;;;;23.45;7.63;;;15.80;99.90;;;16.06;61.07;99606.41;4994565;28;19932;-75
2023/04/12 10:06:33;;;;;;;25.80;6.78;;;15.80;99.90;;;15.80;58.41;99616.53;4994435;28;20043;-73
2023/04/12 10:09:05;;;;;;;21.77;5.85;;;15.60;99.90;;;15.98;58.78;99605.91;4993829;28;20468;-74
2023/04/12 10:11:35;;;;;;;24.10;6.35;;;15.60;99.90;;;16.08;57.77;99609.00;4993827;28;20073;-71
2023/04/12 10:14:04;;;;;;;20.23;5.97;;;15.70;99.90;;;15.95;54.66;99615.84;4994569;28;20070;-71
2023/04/12 10:16:34;;;;;;;12.45;5.00;;;15.70;99.90;;;15.91;52.80;99614.28;4993861;28;20647;-71
2023/04/12 10:19:04;;;;;;;17.65;5.60;;;15.60;99.90;;;15.78;53.13;99613.94;4993888;28;20050;-72
2023/04/12 10:21:32;;;;;;;18.83;5.80;;;15.40;99.90;;;15.85;54.26;99618.06;4994396;28;20077;-67
2023/04/12 10:24:01;;;;;;;13.80;5.03;;;15.50;99.90;;;16.10;55.22;99609.81;4993899;28;20050;-67
2023/04/12 10:26:30;;;;;;;17.67;5.80;;;15.70;99.90;;;16.41;55.51;99618.09;4994442;28;20050;-74
2023/04/12 10:29:26;;;;;;;14.00;5.00;;;16.00;99.90;;;16.15;51.59;99613.09;4994024;28;20045;-72
2023/04/12 10:31:56;;;;;;;14.73;5.93;;;15.90;99.90;;;16.30;52.10;99616.88;4993855;28;20058;-75